Time;durP1;ratioP1;P1;durP2;ratioP2;P2;SDS_P1;SDS_P2;PMS_P1;PMS_P2;Temp;Humidity;BMP_temperature;BMP_pressure;BME280_temperature;BME280_humidity;BME280_pressure;Samples;Min_cycle;Max_cycle;Signal;HPM_P1;HPM_P2
2022/04/29 00:00:39;;;;;;;16.27;6.70;;;;;;;10.46;62.14;102971.72;5052548;28;20109;-69
2022/04/29 00:03:07;;;;;;;13.38;6.50;;;;;;;10.40;62.36;102966.84;5047134;28;20044;-69
2022/04/29 00:05:34;;;;;;;17.70;6.57;;;;;;;10.39;62.26;102965.16;5046999;28;20089;-69
2022/04/29 00:08:00;;;;;;;12.75;6.47;;;;;;;10.37;62.36;102962.63;5048157;28;20017;-69
2022/04/29 00:10:25;;;;;;;12.85;6.05;;;;;;;10.37;62.64;102964.44;5049218;28;20392;-69
2022/04/29 00:12:51;;;;;;;15.23;6.30;;;;;;;10.35;62.50;102969.00;5052050;28;20033;-70
2022/04/29 00:15:18;;;;;;;17.00;7.00;;;;;;;10.27;62.57;102961.63;5049409;28;20031;-69
2022/04/29 00:17:44;;;;;;;15.18;6.55;;;;;;;10.27;62.59;102956.31;5054835;28;20555;-69
2022/04/29 00:20:10;;;;;;;15.35;6.22;;;;;;;10.26;62.37;102965.25;5048176;28;20013;-70
2022/04/29 00:22:36;;;;;;;17.40;6.90;;;;;;;10.24;62.75;102959.22;5048131;28;20494;-69
2022/04/29 00:25:03;;;;;;;12.48;6.18;;;;;;;10.18;62.30;102960.50;5046573;28;20044;-69
2022/04/29 00:27:29;;;;;;;14.88;6.15;;;;;;;10.20;62.48;102952.41;5048471;28;20023;-69
2022/04/29 00:29:54;;;;;;;17.10;6.60;;;;;;;10.18;62.63;102949.88;5051046;28;20408;-70
2022/04/29 00:32:20;;;;;;;11.05;6.22;;;;;;;10.13;62.77;102948.53;5048583;28;20638;-69
2022/04/29 00:34:45;;;;;;;12.70;6.25;;;;;;;10.10;62.79;102951.41;5049660;28;20021;-69
2022/04/29 00:37:11;;;;;;;12.57;6.25;;;;;;;10.06;63.05;102953.44;5048276;28;20021;-69
2022/04/29 00:39:37;;;;;;;11.63;6.05;;;;;;;10.00;62.77;102943.28;5047713;28;20028;-69
2022/04/29 00:42:13;;;;;;;14.23;6.25;;;;;;;10.02;62.64;102946.66;5039805;28;20656;-70
2022/04/29 00:44:42;;;;;;;15.40;6.68;;;;;;;9.93;63.00;102942.91;5049402;28;20075;-69
2022/04/29 00:47:19;;;;;;;12.30;6.43;;;;;;;9.92;63.00;102941.22;5051682;28;20394;-69
2022/04/29 00:49:45;;;;;;;10.40;6.20;;;;;;;9.91;62.97;102947.50;5042028;28;20056;-69
2022/04/29 00:52:18;;;;;;;12.38;6.20;;;;;;;9.85;63.10;102945.31;5050874;28;20104;-69
2022/04/29 00:54:54;;;;;;;14.00;6.13;;;;;;;9.86;63.05;102947.00;5044489;28;20162;-69
2022/04/29 00:57:25;;;;;;;14.88;6.18;;;;;;;9.82;63.21;102944.66;5048326;28;20021;-69
2022/04/29 01:00:03;;;;;;;12.82;5.75;;;;;;;9.81;63.31;102943.81;5048038;28;20025;-69
2022/04/29 01:02:29;;;;;;;9.88;5.72;;;;;;;9.80;63.15;102935.97;5048971;28;20545;-69
2022/04/29 01:05:06;;;;;;;15.02;6.00;;;;;;;9.79;63.12;102936.91;5046529;28;20061;-69
2022/04/29 01:07:33;;;;;;;14.20;6.03;;;;;;;9.73;63.47;102927.63;5057270;28;20514;-69
2022/04/29 01:09:58;;;;;;;14.52;6.75;;;;;;;9.69;63.20;102931.47;5047185;28;20478;-69
2022/04/29 01:12:26;;;;;;;14.63;6.38;;;;;;;9.64;63.25;102930.97;5049387;28;20031;-69
2022/04/29 01:14:55;;;;;;;11.88;6.13;;;;;;;9.65;63.38;102932.66;5046227;28;20017;-69
2022/04/29 01:17:20;;;;;;;14.02;6.28;;;;;;;9.57;63.64;102919.97;5051314;28;20064;-69
2022/04/29 01:19:45;;;;;;;12.05;6.28;;;;;;;9.56;63.83;102923.56;5047203;28;20020;-69
2022/04/29 01:22:11;;;;;;;12.35;6.43;;;;;;;9.52;64.14;102915.94;5054165;28;20020;-69
2022/04/29 01:24:36;;;;;;;14.05;6.43;;;;;;;9.48;63.92;102915.31;5050298;28;20028;-69
2022/04/29 01:27:10;;;;;;;10.07;6.28;;;;;;;9.44;64.16;102921.81;5047465;28;20028;-69
2022/04/29 01:29:42;;;;;;;14.52;6.55;;;;;;;9.37;64.18;102909.97;5051072;28;20029;-69
2022/04/29 01:32:09;;;;;;;16.27;6.75;;;;;;;9.32;64.50;102910.31;5046872;28;20029;-69
2022/04/29 01:34:35;;;;;;;17.02;6.80;;;;;;;9.24;64.92;102902.03;5046423;28;20025;-69
2022/04/29 01:37:00;;;;;;;14.27;6.75;;;;;;;9.20;64.78;102897.91;5046389;28;20119;-69
2022/04/29 01:39:25;;;;;;;11.18;5.97;;;;;;;9.15;64.94;102900.06;5051225;28;20029;-69
2022/04/29 01:41:51;;;;;;;14.13;6.40;;;;;;;9.15;64.92;102908.00;5048733;28;20032;-69
2022/04/29 01:44:17;;;;;;;11.55;6.70;;;;;;;9.14;65.08;102908.13;5050803;28;20033;-69
2022/04/29 01:46:43;;;;;;;16.55;6.65;;;;;;;9.13;64.99;102911.72;5050426;28;20025;-69
2022/04/29 01:49:08;;;;;;;18.70;6.90;;;;;;;9.09;65.02;102897.84;5053423;28;20517;-69
2022/04/29 01:51:33;;;;;;;17.20;6.47;;;;;;;9.07;65.00;102901.56;5052529;28;20027;-69
2022/04/29 01:53:59;;;;;;;14.88;6.45;;;;;;;9.07;65.19;102894.47;5051756;28;20021;-69
2022/04/29 01:56:32;;;;;;;13.43;6.57;;;;;;;9.05;65.03;102896.38;5050916;28;20524;-69
2022/04/29 01:59:00;;;;;;;16.02;6.82;;;;;;;9.00;65.42;102899.38;5051919;28;20367;-69
2022/04/29 02:01:27;;;;;;;12.55;6.60;;;;;;;8.99;64.97;102897.69;5051190;28;20135;-69
2022/04/29 02:03:53;;;;;;;14.98;7.32;;;;;;;8.99;65.51;102896.84;5055625;28;20394;-69
2022/04/29 02:06:18;;;;;;;15.60;7.13;;;;;;;8.96;65.54;102904.97;5050265;28;20032;-69
2022/04/29 02:08:43;;;;;;;20.77;7.45;;;;;;;8.95;65.64;102906.78;5054094;28;20060;-69
2022/04/29 02:11:08;;;;;;;13.13;7.68;;;;;;;8.93;65.49;102902.53;5050496;28;20036;-69
2022/04/29 02:13:34;;;;;;;12.93;7.10;;;;;;;8.93;65.63;102891.94;5051338;28;20626;-69
2022/04/29 02:15:59;;;;;;;14.10;7.10;;;;;;;8.93;65.67;102892.78;5051122;28;20071;-69
2022/04/29 02:18:25;;;;;;;14.52;7.57;;;;;;;8.86;65.69;102888.91;5055092;28;20029;-69
2022/04/29 02:20:50;;;;;;;18.42;7.65;;;;;;;8.89;65.76;102890.47;5044247;28;20028;-69
2022/04/29 02:23:15;;;;;;;20.30;7.75;;;;;;;8.82;65.83;102884.78;5054972;28;20828;-69
2022/04/29 02:25:40;;;;;;;17.77;7.82;;;;;;;8.83;66.08;102894.41;5050526;28;20077;-69
2022/04/29 02:28:06;;;;;;;14.23;7.75;;;;;;;8.77;65.97;102886.91;5052366;28;20024;-69
2022/04/29 02:30:33;;;;;;;16.30;7.70;;;;;;;8.78;66.18;102888.59;5051424;28;20025;-69
2022/04/29 02:32:58;;;;;;;13.70;7.32;;;;;;;8.73;66.40;102888.09;5049865;28;20032;-69
2022/04/29 02:35:24;;;;;;;15.07;7.65;;;;;;;8.68;66.26;102888.41;5050967;28;20108;-69
2022/04/29 02:37:49;;;;;;;16.10;8.38;;;;;;;8.62;66.67;102875.56;5049743;28;20056;-69
2022/04/29 02:40:14;;;;;;;13.80;7.90;;;;;;;8.67;66.41;102886.72;5050410;28;20630;-69
2022/04/29 02:42:40;;;;;;;16.02;7.90;;;;;;;8.68;66.75;102888.41;5050078;28;20029;-69
2022/04/29 02:45:06;;;;;;;16.20;7.97;;;;;;;8.67;66.72;102888.50;5051938;28;20025;-69
2022/04/29 02:47:31;;;;;;;12.02;7.68;;;;;;;8.67;66.75;102892.00;5051477;28;20029;-69
2022/04/29 02:49:58;;;;;;;15.20;8.30;;;;;;;8.66;66.78;102894.75;5054346;28;20737;-69
2022/04/29 02:52:23;;;;;;;20.30;9.10;;;;;;;8.64;66.93;102892.19;5050575;28;20024;-69
2022/04/29 02:54:49;;;;;;;16.20;8.57;;;;;;;8.62;66.91;102880.88;5050357;28;20052;-68
2022/04/29 02:57:14;;;;;;;17.85;9.75;;;;;;;8.64;66.86;102883.41;5053427;28;20087;-69
2022/04/29 02:59:39;;;;;;;19.63;8.77;;;;;;;8.61;67.09;102881.81;5049604;28;20371;-69
2022/04/29 03:02:05;;;;;;;14.57;8.75;;;;;;;8.61;66.92;102881.81;5046707;28;20078;-69
2022/04/29 03:04:30;;;;;;;14.48;9.10;;;;;;;8.59;66.93;102878.44;5048951;28;20082;-69
2022/04/29 03:06:56;;;;;;;16.35;9.68;;;;;;;8.61;67.05;102878.34;5050150;28;20029;-69
2022/04/29 03:09:21;;;;;;;17.85;9.27;;;;;;;8.57;67.18;102875.06;5047445;28;20032;-69
2022/04/29 03:11:48;;;;;;;25.83;9.82;;;;;;;8.56;67.24;102868.06;5049923;28;20067;-69
2022/04/29 03:14:13;;;;;;;17.48;9.75;;;;;;;8.52;67.37;102858.66;5048201;28;20107;-69
2022/04/29 03:16:38;;;;;;;19.85;10.10;;;;;;;8.46;67.84;102845.00;5049563;28;20374;-69
2022/04/29 03:19:04;;;;;;;17.83;9.73;;;;;;;8.47;68.03;102847.53;5049069;28;20025;-69
2022/04/29 03:21:29;;;;;;;18.85;9.93;;;;;;;8.43;67.85;102850.50;5050393;28;20036;-68
2022/04/29 03:23:55;;;;;;;18.25;10.30;;;;;;;8.40;67.94;102851.56;5048471;28;20017;-68
2022/04/29 03:26:20;;;;;;;13.85;9.73;;;;;;;8.34;68.13;102850.19;5049001;28;20067;-68
2022/04/29 03:28:46;;;;;;;14.13;9.95;;;;;;;8.35;68.20;102851.88;5048491;28;20036;-69
2022/04/29 03:31:11;;;;;;;23.05;10.18;;;;;;;8.34;68.33;102849.34;5049975;28;20033;-69
2022/04/29 03:33:36;;;;;;;28.23;10.40;;;;;;;8.32;68.44;102862.66;5048297;28;20135;-69
2022/04/29 03:36:02;;;;;;;23.55;10.68;;;;;;;8.31;68.51;102871.53;5048205;28;20069;-69
2022/04/29 03:38:27;;;;;;;18.20;10.30;;;;;;;8.32;68.51;102881.16;5052128;28;20437;-69
2022/04/29 03:40:53;;;;;;;14.48;10.07;;;;;;;8.32;68.49;102869.75;5049399;28;20454;-69
2022/04/29 03:43:19;;;;;;;17.80;11.25;;;;;;;8.29;68.32;102868.16;5050107;28;20032;-69
2022/04/29 03:45:45;;;;;;;16.83;10.10;;;;;;;8.32;68.64;102867.09;5048449;28;20036;-69
2022/04/29 03:48:11;;;;;;;21.27;11.55;;;;;;;8.31;68.65;102866.25;5048770;28;20028;-69
2022/04/29 03:50:38;;;;;;;18.70;11.10;;;;;;;8.31;68.46;102862.75;5049084;28;20033;-68
2022/04/29 03:53:04;;;;;;;22.05;11.02;;;;;;;8.32;68.77;102845.91;5047654;28;20029;-69
2022/04/29 03:55:31;;;;;;;19.73;11.77;;;;;;;8.28;68.90;102852.38;5047127;28;20060;-69
2022/04/29 03:57:57;;;;;;;21.77;11.90;;;;;;;8.29;68.81;102844.31;5047558;28;20105;-69
2022/04/29 04:00:24;;;;;;;20.75;11.52;;;;;;;8.26;69.19;102852.47;5048993;28;20028;-68
2022/04/29 04:02:50;;;;;;;20.02;11.80;;;;;;;8.24;69.01;102859.69;5046493;28;20475;-69
2022/04/29 04:05:17;;;;;;;18.08;11.57;;;;;;;8.20;69.15;102858.22;5046946;28;20031;-68
2022/04/29 04:07:42;;;;;;;21.25;11.95;;;;;;;8.16;69.29;102864.66;5048379;28;20024;-69
2022/04/29 04:10:08;;;;;;;24.70;12.45;;;;;;;8.15;69.13;102856.84;5047951;28;20484;-69
2022/04/29 04:12:37;;;;;;;19.20;12.35;;;;;;;8.13;69.35;102858.75;5046087;28;20107;-68
2022/04/29 04:15:03;;;;;;;20.88;11.82;;;;;;;8.12;69.21;102857.06;5041914;28;20048;-68
2022/04/29 04:17:28;;;;;;;21.38;12.18;;;;;;;8.08;69.45;102848.44;5050961;28;20402;-69
2022/04/29 04:19:53;;;;;;;25.20;12.68;;;;;;;8.07;69.71;102849.41;5043548;28;20017;-69
2022/04/29 04:22:19;;;;;;;23.13;12.30;;;;;;;8.07;69.76;102852.03;5048016;28;20107;-68
2022/04/29 04:24:44;;;;;;;22.60;12.63;;;;;;;8.03;69.90;102845.28;5047449;28;20029;-68
2022/04/29 04:27:09;;;;;;;20.23;12.85;;;;;;;8.00;69.94;102837.53;5047353;28;20398;-68
2022/04/29 04:29:35;;;;;;;21.90;11.70;;;;;;;8.00;70.13;102842.84;5046727;28;20024;-68
2022/04/29 04:32:00;;;;;;;22.17;12.07;;;;;;;7.98;69.98;102847.41;5049026;28;20107;-68
2022/04/29 04:37:09;;;;;;;22.92;12.60;;;;;;;7.92;69.78;102850.47;5042509;28;20705;-68
2022/04/29 04:39:34;;;;;;;26.10;12.85;;;;;;;7.93;70.51;102836.28;5048195;28;20017;-68
2022/04/29 04:42:00;;;;;;;20.33;12.77;;;;;;;7.90;70.31;102842.63;5047601;28;20421;-68
2022/04/29 04:44:25;;;;;;;19.48;12.85;;;;;;;7.86;70.59;102846.44;5046862;28;20067;-68
2022/04/29 04:46:50;;;;;;;24.52;13.40;;;;;;;7.86;70.54;102845.59;5049404;28;20082;-68
2022/04/29 04:49:15;;;;;;;24.88;13.35;;;;;;;7.86;70.81;102840.31;5047032;28;20032;-68
2022/04/29 04:51:41;;;;;;;22.75;13.77;;;;;;;7.89;70.86;102846.22;5045124;28;20044;-68
2022/04/29 04:54:06;;;;;;;23.77;13.07;;;;;;;7.88;70.87;102844.53;5046719;28;20090;-68
2022/04/29 04:56:31;;;;;;;26.17;13.10;;;;;;;7.87;70.73;102845.47;5047537;28;20020;-68
2022/04/29 04:58:57;;;;;;;24.02;13.52;;;;;;;7.86;70.94;102849.09;5049269;28;20032;-68
2022/04/29 05:01:22;;;;;;;24.17;13.25;;;;;;;7.80;70.77;102835.41;5042231;28;20033;-68
2022/04/29 05:03:48;;;;;;;22.90;13.43;;;;;;;7.82;71.00;102839.66;5048373;28;20120;-68
2022/04/29 05:06:13;;;;;;;21.08;13.48;;;;;;;7.82;70.90;102839.66;5047739;28;20111;-68
2022/04/29 05:08:38;;;;;;;22.88;12.75;;;;;;;7.82;70.97;102844.09;5044718;28;20024;-68
2022/04/29 05:11:03;;;;;;;27.95;13.60;;;;;;;7.83;71.16;102845.81;5046771;28;20016;-68
2022/04/29 05:13:29;;;;;;;24.02;13.48;;;;;;;7.81;71.08;102845.91;5048856;28;20037;-68
2022/04/29 05:15:54;;;;;;;25.83;13.20;;;;;;;7.86;71.32;102854.38;5046928;28;20037;-68
2022/04/29 05:18:19;;;;;;;28.92;14.55;;;;;;;7.87;71.06;102847.28;5048542;28;20058;-68
2022/04/29 05:20:45;;;;;;;24.23;13.07;;;;;;;7.88;71.04;102851.63;5038981;28;20431;-68
2022/04/29 05:23:10;;;;;;;20.73;12.68;;;;;;;7.91;70.89;102851.41;5045906;28;20028;-68
2022/04/29 05:25:35;;;;;;;25.30;14.13;;;;;;;7.78;71.13;102831.06;5048811;28;20032;-68
2022/04/29 05:28:01;;;;;;;28.17;13.55;;;;;;;7.89;70.86;102855.97;5046570;28;20035;-68
2022/04/29 05:30:27;;;;;;;24.42;13.77;;;;;;;7.89;71.03;102854.16;5046813;28;20057;-68
2022/04/29 05:32:53;;;;;;;25.90;13.90;;;;;;;7.94;71.07;102853.84;5046366;28;20025;-68
2022/04/29 05:35:18;;;;;;;22.55;13.55;;;;;;;7.95;70.99;102852.91;5045751;28;20029;-68
2022/04/29 05:37:44;;;;;;;23.30;13.73;;;;;;;7.98;71.11;102855.31;5049805;28;20048;-68
2022/04/29 05:42:55;;;;;;;24.52;13.00;;;;;;;7.99;71.00;102852.56;5045805;28;20059;-68
2022/04/29 05:45:20;;;;;;;28.85;14.25;;;;;;;8.01;71.09;102852.47;5048483;28;20021;-68
2022/04/29 05:47:45;;;;;;;23.80;13.43;;;;;;;8.02;71.26;102851.50;5049871;28;20545;-68
2022/04/29 05:50:10;;;;;;;22.23;13.68;;;;;;;8.04;71.27;102841.69;5047006;28;20029;-68
2022/04/29 05:52:36;;;;;;;30.27;14.15;;;;;;;8.05;71.19;102846.84;5048078;28;20025;-68
2022/04/29 05:55:01;;;;;;;23.42;13.88;;;;;;;8.08;71.38;102859.03;5045566;28;20506;-68
2022/04/29 05:57:26;;;;;;;27.05;13.48;;;;;;;8.12;71.27;102862.34;5045490;28;20029;-68
2022/04/29 05:59:51;;;;;;;25.92;13.48;;;;;;;8.16;71.20;102869.97;5045971;28;20041;-68
2022/04/29 06:02:17;;;;;;;24.63;13.45;;;;;;;8.19;71.24;102867.09;5045981;28;20036;-68
2022/04/29 06:04:42;;;;;;;25.70;13.45;;;;;;;8.21;71.26;102864.34;5042587;28;20542;-68
2022/04/29 06:07:08;;;;;;;26.92;13.98;;;;;;;8.24;70.83;102864.97;5049469;28;20032;-69
2022/04/29 06:09:33;;;;;;;34.00;14.93;;;;;;;8.24;71.00;102869.44;5046772;28;20469;-68
2022/04/29 06:11:58;;;;;;;25.75;13.48;;;;;;;8.26;71.13;102873.66;5046394;28;20033;-68
2022/04/29 06:14:24;;;;;;;27.77;14.07;;;;;;;8.30;70.91;102883.09;5046317;28;20055;-68
2022/04/29 06:16:49;;;;;;;26.48;13.70;;;;;;;8.30;70.93;102869.84;5045049;28;20077;-68
2022/04/29 06:19:14;;;;;;;23.98;13.75;;;;;;;8.35;71.02;102869.56;5051438;28;20028;-68
2022/04/29 06:21:40;;;;;;;22.17;13.90;;;;;;;8.39;71.15;102873.72;5044707;28;20040;-68
2022/04/29 06:24:07;;;;;;;28.17;13.98;;;;;;;8.41;71.21;102874.44;5041533;28;20025;-68
2022/04/29 06:26:33;;;;;;;24.48;14.68;;;;;;;8.43;71.19;102874.34;5037803;28;20045;-68
2022/04/29 06:28:58;;;;;;;27.65;13.40;;;;;;;8.47;71.11;102878.47;5049503;28;20033;-68
2022/04/29 06:31:23;;;;;;;25.58;14.05;;;;;;;8.51;71.16;102886.09;5046962;28;20503;-68
2022/04/29 06:33:49;;;;;;;25.85;13.68;;;;;;;8.55;71.11;102873.47;5052749;28;20052;-68
2022/04/29 06:36:14;;;;;;;23.83;13.88;;;;;;;8.54;70.86;102877.91;5049721;28;20083;-68
2022/04/29 06:38:39;;;;;;;26.90;13.90;;;;;;;8.57;70.81;102877.72;5049992;28;20396;-68
2022/04/29 06:41:05;;;;;;;29.40;14.80;;;;;;;8.61;70.87;102884.47;5049895;28;20482;-68
2022/04/29 06:43:30;;;;;;;31.58;14.02;;;;;;;8.64;70.73;102881.59;5049450;28;20086;-68
2022/04/29 06:45:56;;;;;;;24.50;13.43;;;;;;;8.69;70.89;102887.47;5048685;28;20517;-68
2022/04/29 06:48:21;;;;;;;25.77;13.32;;;;;;;8.73;70.80;102889.88;5047391;28;20037;-68
2022/04/29 06:50:47;;;;;;;24.65;13.90;;;;;;;8.78;70.65;102882.44;5050659;28;20063;-69
2022/04/29 06:53:12;;;;;;;39.92;14.20;;;;;;;8.80;70.82;102886.69;5047664;28;20029;-68
2022/04/29 06:55:40;;;;;;;23.58;13.38;;;;;;;8.84;70.65;102884.66;5049949;28;20041;-68
2022/04/29 06:58:06;;;;;;;23.48;13.13;;;;;;;8.85;70.42;102883.69;5049678;28;20017;-69
2022/04/29 07:00:33;;;;;;;27.02;14.13;;;;;;;8.89;70.21;102891.31;5049954;28;20529;-68
2022/04/29 07:03:01;;;;;;;25.92;13.77;;;;;;;8.93;70.16;102894.59;5048717;28;20028;-68
2022/04/29 07:05:28;;;;;;;22.27;13.85;;;;;;;8.96;70.44;102894.38;5049643;28;20111;-68
2022/04/29 07:07:53;;;;;;;25.83;14.48;;;;;;;8.99;70.43;102887.06;5049350;28;20017;-68
2022/04/29 07:10:18;;;;;;;25.45;13.77;;;;;;;9.10;70.31;102896.91;5049692;28;20428;-68
2022/04/29 07:12:46;;;;;;;30.98;13.88;;;;;;;9.16;70.37;102892.94;5049250;28;20020;-68
2022/04/29 07:15:13;;;;;;;21.38;13.10;;;;;;;9.23;70.09;102891.53;5048498;28;20028;-68
2022/04/29 07:17:39;;;;;;;28.88;13.27;;;;;;;9.29;70.18;102889.31;5049424;28;20023;-68
2022/04/29 07:20:06;;;;;;;27.27;14.45;;;;;;;9.36;69.99;102889.72;5049541;28;20029;-68
2022/04/29 07:22:31;;;;;;;26.80;13.90;;;;;;;9.44;69.76;102881.19;5049667;28;20029;-68
2022/04/29 07:24:56;;;;;;;26.30;13.25;;;;;;;9.51;69.70;102890.38;5048381;28;20025;-68
2022/04/29 07:27:21;;;;;;;25.60;14.05;;;;;;;9.60;69.45;102887.91;5049590;28;20047;-68
2022/04/29 07:29:47;;;;;;;26.88;13.90;;;;;;;9.68;69.48;102886.47;5049277;28;20029;-68
2022/04/29 07:32:12;;;;;;;29.80;14.23;;;;;;;9.78;68.80;102888.31;5049276;28;20635;-68
2022/04/29 07:42:50;;;;;;;29.98;13.35;;;;;;;10.21;68.36;102877.97;5047630;28;20436;-69
2022/04/29 07:45:15;;;;;;;28.17;12.82;;;;;;;10.28;68.37;102886.31;5048816;28;20025;-68
2022/04/29 07:47:40;;;;;;;24.30;13.20;;;;;;;10.31;68.22;102887.88;5048567;28;20425;-68
2022/04/29 07:50:06;;;;;;;22.80;12.95;;;;;;;10.33;67.88;102886.81;5047206;28;20020;-68
2022/04/29 07:52:32;;;;;;;23.35;13.23;;;;;;;10.40;67.41;102895.13;5043528;28;20025;-68
2022/04/29 07:54:57;;;;;;;23.67;13.45;;;;;;;10.48;67.58;102884.78;5047843;28;20025;-69
2022/04/29 07:57:23;;;;;;;27.55;13.63;;;;;;;10.61;67.24;102889.97;5048727;28;20025;-68
2022/04/29 07:59:51;;;;;;;27.73;13.45;;;;;;;10.68;67.42;102889.34;5048621;28;20031;-69
2022/04/29 08:02:16;;;;;;;25.63;13.38;;;;;;;10.76;67.02;102892.28;5049004;28;20441;-69
2022/04/29 08:04:41;;;;;;;26.33;12.43;;;;;;;10.81;66.76;102894.56;5047576;28;20032;-68
2022/04/29 08:07:06;;;;;;;24.25;12.73;;;;;;;10.81;66.83;102892.75;5049030;28;20079;-69
2022/04/29 08:09:32;;;;;;;27.73;13.32;;;;;;;10.92;66.55;102906.97;5048591;28;20386;-69
2022/04/29 08:11:57;;;;;;;23.90;12.73;;;;;;;10.95;66.19;102904.06;5048858;28;20234;-68
2022/04/29 08:14:22;;;;;;;25.75;13.40;;;;;;;11.00;66.05;102896.59;5047240;28;20032;-68
2022/04/29 08:16:49;;;;;;;25.48;13.20;;;;;;;11.02;65.71;102900.00;5048612;28;20490;-68
2022/04/29 08:19:14;;;;;;;23.20;13.18;;;;;;;11.00;65.49;102896.59;5048545;28;20071;-68
2022/04/29 08:21:39;;;;;;;30.88;13.85;;;;;;;11.05;65.51;102905.06;5048328;28;20025;-68
2022/04/29 08:24:05;;;;;;;21.25;13.20;;;;;;;11.02;65.32;102892.84;5047748;28;20047;-69
2022/04/29 08:26:30;;;;;;;27.05;13.25;;;;;;;11.09;65.50;102901.19;5049040;28;20028;-68
2022/04/29 08:28:56;;;;;;;24.10;13.02;;;;;;;11.05;65.04;102889.09;5050827;28;20028;-68
2022/04/29 08:31:22;;;;;;;27.55;13.43;;;;;;;11.00;64.76;102889.47;5047822;28;20102;-68
2022/04/29 08:33:48;;;;;;;24.65;13.52;;;;;;;11.01;64.85;102900.94;5047523;28;20033;-68
2022/04/29 08:36:15;;;;;;;24.55;13.20;;;;;;;10.96;64.76;102909.28;5047983;28;20017;-68
2022/04/29 08:38:41;;;;;;;23.23;12.20;;;;;;;11.04;64.88;102908.69;5048008;28;20504;-68
2022/04/29 08:41:08;;;;;;;33.13;13.57;;;;;;;11.08;64.96;102899.50;5047740;28;20657;-68
2022/04/29 08:43:34;;;;;;;24.58;13.15;;;;;;;11.00;64.79;102883.31;5040924;28;20021;-68
2022/04/29 08:46:01;;;;;;;26.50;12.60;;;;;;;11.16;64.85;102907.69;5047775;28;20032;-69
2022/04/29 08:48:30;;;;;;;21.92;12.77;;;;;;;11.15;64.63;102896.19;5047931;28;20032;-69
2022/04/29 08:50:57;;;;;;;26.02;13.00;;;;;;;11.20;64.38;102902.97;5047963;28;20048;-68
2022/04/29 08:53:23;;;;;;;25.65;13.18;;;;;;;11.20;64.65;102895.81;5046352;28;20036;-68
2022/04/29 08:58:39;;;;;;;23.48;12.32;;;;;;;11.30;64.33;102899.44;5047946;28;20068;-68
2022/04/29 09:01:13;;;;;;;26.38;13.15;;;;;;;11.33;64.06;102903.66;5047351;28;20379;-68
2022/04/29 09:03:42;;;;;;;23.48;12.75;;;;;;;11.36;63.95;102901.59;5046462;28;20405;-69
2022/04/29 09:06:07;;;;;;;25.67;13.50;;;;;;;11.45;64.19;102903.50;5046492;28;20036;-69
2022/04/29 09:08:40;;;;;;;25.50;13.18;;;;;;;11.47;64.14;102901.56;5044907;28;20032;-69
2022/04/29 09:11:06;;;;;;;25.88;12.45;;;;;;;11.47;63.85;102903.38;5043057;28;20021;-69
2022/04/29 09:13:37;;;;;;;26.85;13.02;;;;;;;11.53;63.79;102902.03;5041077;28;20040;-69
2022/04/29 09:16:12;;;;;;;27.08;13.02;;;;;;;11.57;63.53;102893.69;5042591;28;20537;-68
2022/04/29 09:18:46;;;;;;;22.50;12.48;;;;;;;11.66;63.76;102900.91;5043868;28;20028;-68
2022/04/29 09:21:28;;;;;;;27.15;12.93;;;;;;;11.73;63.58;102893.25;5048333;28;20410;-69
2022/04/29 09:23:59;;;;;;;22.52;12.23;;;;;;;11.77;63.28;102905.31;5044714;28;20109;-68
2022/04/29 09:26:35;;;;;;;23.73;12.18;;;;;;;11.82;63.34;102900.47;5046961;28;20036;-68
2022/04/29 09:29:12;;;;;;;25.42;11.75;;;;;;;11.92;62.89;102906.75;5036654;28;20025;-68
2022/04/29 09:31:54;;;;;;;25.55;11.73;;;;;;;11.96;62.93;102902.00;5047253;28;20066;-68
2022/04/29 09:34:20;;;;;;;23.65;12.88;;;;;;;11.99;62.86;102896.41;5045370;28;20111;-68
2022/04/29 09:36:46;;;;;;;23.80;12.57;;;;;;;12.00;62.47;102882.13;5046758;28;20035;-68
2022/04/29 09:39:30;;;;;;;27.70;12.25;;;;;;;12.09;62.28;102884.84;5046680;28;20036;-68
2022/04/29 09:42:05;;;;;;;28.27;11.93;;;;;;;12.18;62.44;102893.88;5041345;28;20083;-68
2022/04/29 09:44:33;;;;;;;23.88;11.40;;;;;;;12.21;62.65;102904.28;5045493;28;20587;-68
2022/04/29 09:47:15;;;;;;;25.27;11.27;;;;;;;12.27;62.25;102917.06;5045917;28;20486;-68
2022/04/29 09:49:56;;;;;;;26.90;11.75;;;;;;;12.25;62.15;102918.19;5043489;28;20032;-68
2022/04/29 09:52:23;;;;;;;21.55;11.23;;;;;;;12.24;61.84;102908.50;5046047;28;20041;-68
2022/04/29 09:54:48;;;;;;;24.45;11.00;;;;;;;12.28;61.89;102909.94;5041640;28;20029;-68
2022/04/29 09:57:23;;;;;;;19.42;11.15;;;;;;;12.25;61.83;102894.22;5043549;28;20027;-68
2022/04/29 09:59:53;;;;;;;26.52;11.15;;;;;;;12.35;61.73;102903.09;5046607;28;20448;-69
2022/04/29 10:02:21;;;;;;;25.25;11.20;;;;;;;12.35;61.29;102900.41;5045387;28;20039;-69
2022/04/29 10:04:48;;;;;;;23.25;10.73;;;;;;;12.31;61.57;102891.84;5046003;28;20057;-69
2022/04/29 10:07:18;;;;;;;21.67;10.75;;;;;;;12.36;61.27;102894.13;5048142;28;20036;-68
2022/04/29 10:09:48;;;;;;;28.77;11.00;;;;;;;12.40;61.03;102890.22;5050893;28;20029;-68
2022/04/29 10:12:16;;;;;;;22.40;10.32;;;;;;;12.45;61.21;102890.69;5053634;28;20641;-68
2022/04/29 10:14:44;;;;;;;19.83;10.45;;;;;;;12.44;60.85;102891.66;5048953;28;20438;-68
2022/04/29 10:22:46;;;;;;;20.10;10.70;;;;;;;12.44;60.92;102882.81;5050699;28;20036;-68
2022/04/29 10:25:12;;;;;;;21.05;10.68;;;;;;;12.47;60.78;102883.41;5046657;28;20029;-68
2022/04/29 10:27:42;;;;;;;22.40;10.38;;;;;;;12.47;61.01;102882.56;5045581;28;20094;-68
2022/04/29 10:30:09;;;;;;;21.50;10.27;;;;;;;12.50;60.76;102867.13;5048562;28;20037;-68
2022/04/29 10:33:07;;;;;;;17.40;9.52;;;;;;;12.59;60.90;102884.97;5050353;28;20047;-68
2022/04/29 10:35:45;;;;;;;22.85;10.05;;;;;;;12.60;60.98;102889.34;5045469;28;20047;-68
2022/04/29 10:38:16;;;;;;;18.52;9.85;;;;;;;12.63;61.02;102875.72;5048190;28;20710;-68
2022/04/29 10:40:42;;;;;;;16.98;10.23;;;;;;;12.60;60.52;102867.16;5048816;28;20057;-69
2022/04/29 10:43:10;;;;;;;20.20;10.23;;;;;;;12.58;60.67;102866.47;5047985;28;20017;-69
2022/04/29 10:46:04;;;;;;;22.17;9.95;;;;;;;12.67;61.00;102869.16;5054441;28;21020;-68
2022/04/29 10:48:34;;;;;;;19.35;10.15;;;;;;;12.71;60.95;102867.06;5045602;28;20037;-68
2022/04/29 10:51:09;;;;;;;18.50;9.80;;;;;;;12.79;60.77;102871.75;5050429;28;20027;-68
2022/04/29 10:53:43;;;;;;;20.05;9.68;;;;;;;12.79;60.73;102863.75;5048674;28;20058;-68
2022/04/29 10:56:30;;;;;;;20.67;9.30;;;;;;;12.90;60.40;102861.78;5049632;28;20375;-69
2022/04/29 10:59:05;;;;;;;24.55;9.80;;;;;;;12.88;60.25;102862.91;5048517;28;20029;-68
2022/04/29 11:01:34;;;;;;;25.23;9.73;;;;;;;12.92;59.74;102864.31;5047492;28;20401;-68
2022/04/29 11:04:00;;;;;;;19.67;9.43;;;;;;;12.98;59.66;102859.28;5043464;28;20036;-69
2022/04/29 11:06:44;;;;;;;21.63;9.30;;;;;;;13.08;59.43;102854.00;5049654;28;20056;-68
2022/04/29 11:09:51;;;;;;;23.42;8.63;;;;;;;13.19;59.10;102859.22;5048131;28;20402;-68
2022/04/29 11:12:30;;;;;;;16.20;8.55;;;;;;;13.26;58.52;102857.69;5048525;28;20040;-69
2022/04/29 11:15:05;;;;;;;18.05;8.23;;;;;;;13.29;57.97;102846.72;5052608;28;20025;-69
2022/04/29 11:17:35;;;;;;;16.23;9.05;;;;;;;13.33;57.62;102844.66;5048189;28;20063;-69
2022/04/29 11:20:14;;;;;;;17.55;8.65;;;;;;;13.38;57.42;102839.72;5042136;28;20626;-69
2022/04/29 11:25:25;;;;;;;17.20;8.50;;;;;;;13.51;56.62;102836.78;5045303;28;20106;-69
2022/04/29 11:27:51;;;;;;;17.25;8.27;;;;;;;13.58;56.38;102840.56;5048090;28;20071;-69
2022/04/29 11:30:17;;;;;;;15.75;7.78;;;;;;;13.68;56.29;102832.56;5049459;28;20021;-69
2022/04/29 11:32:43;;;;;;;16.73;8.10;;;;;;;13.72;56.15;102842.81;5045028;28;20486;-68
2022/04/29 11:35:08;;;;;;;20.33;7.95;;;;;;;13.84;55.63;102849.66;5048392;28;20110;-69
2022/04/29 11:37:34;;;;;;;19.65;8.18;;;;;;;13.93;55.59;102853.31;5049016;28;20028;-69
2022/04/29 11:40:05;;;;;;;14.05;6.90;;;;;;;13.99;55.13;102844.72;5048256;28;20021;-68
2022/04/29 11:42:31;;;;;;;12.80;7.18;;;;;;;14.14;54.25;102845.94;5049524;28;20055;-68